Time;durP1;ratioP1;P1;durP2;ratioP2;P2;SDS_P1;SDS_P2;PMS_P1;PMS_P2;Temp;Humidity;BMP_temperature;BMP_pressure;BME280_temperature;BME280_humidity;BME280_pressure;Samples;Min_cycle;Max_cycle;Signal;HPM_P1;HPM_P2
2022/09/18 00:00:42;;;;;;;5.80;1.27;;;9.40;99.90;;;;;;4963848;28;89142;-31
2022/09/18 00:03:09;;;;;;;3.33;2.03;;;9.40;99.90;;;;;;4963775;28;89265;-29
2022/09/18 00:05:37;;;;;;;6.80;1.92;;;9.50;99.90;;;;;;4963598;28;88765;-32
2022/09/18 00:08:03;;;;;;;12.00;2.00;;;9.50;99.90;;;;;;4963275;28;90216;-33
2022/09/18 00:10:29;;;;;;;7.38;2.45;;;9.50;99.90;;;;;;4964367;28;89881;-29
2022/09/18 00:12:54;;;;;;;4.90;2.10;;;9.50;99.90;;;;;;4963602;28;90071;-29
2022/09/18 00:15:20;;;;;;;7.75;2.17;;;9.50;99.90;;;;;;4964033;28;89463;-33
2022/09/18 00:17:46;;;;;;;3.45;1.63;;;9.50;99.90;;;;;;4964209;28;89983;-30
2022/09/18 00:20:12;;;;;;;6.57;1.92;;;9.50;99.90;;;;;;4962931;28;89996;-35
2022/09/18 00:22:39;;;;;;;4.97;1.85;;;9.50;99.90;;;;;;4963992;28;87648;-30
2022/09/18 00:25:06;;;;;;;1.00;1.00;;;9.50;99.90;;;;;;4962785;28;90177;-31
2022/09/18 00:27:31;;;;;;;4.25;1.88;;;9.50;99.90;;;;;;4963092;28;91425;-31
2022/09/18 00:29:57;;;;;;;4.88;1.75;;;9.50;99.90;;;;;;4963667;28;89831;-29
2022/09/18 00:32:23;;;;;;;7.35;1.42;;;9.40;99.90;;;;;;4961807;28;88529;-30
2022/09/18 00:34:48;;;;;;;3.58;1.50;;;9.50;99.90;;;;;;4963586;28;90173;-30
2022/09/18 00:37:14;;;;;;;3.83;2.15;;;9.50;99.90;;;;;;4962706;28;90178;-31
2022/09/18 00:39:40;;;;;;;5.82;2.60;;;9.40;99.90;;;;;;4964020;28;89563;-30
2022/09/18 00:42:05;;;;;;;12.48;2.30;;;9.40;99.90;;;;;;4999015;22;88933;-29
2022/09/18 00:44:48;;;;;;;7.93;2.13;;;9.40;99.90;;;;;;4963376;28;90254;-30
2022/09/18 00:47:35;;;;;;;4.85;1.17;;;9.50;99.90;;;;;;4963183;28;90028;-29
2022/09/18 00:50:07;;;;;;;4.75;1.75;;;9.40;99.90;;;;;;4963123;28;89629;-31
2022/09/18 00:52:44;;;;;;;6.15;1.92;;;9.40;99.90;;;;;;4963614;28;89301;-28
2022/09/18 00:55:11;;;;;;;4.57;1.50;;;9.40;99.90;;;;;;4963044;28;89526;-31
2022/09/18 00:57:42;;;;;;;8.40;1.85;;;9.40;99.90;;;;;;4962716;28;90191;-31
2022/09/18 01:00:13;;;;;;;7.30;2.38;;;9.50;99.90;;;;;;4962947;28;89724;-29
2022/09/18 01:02:40;;;;;;;8.15;2.05;;;9.50;99.90;;;;;;4962596;28;89243;-33
2022/09/18 01:05:06;;;;;;;10.98;2.15;;;9.50;99.90;;;;;;4963209;28;89217;-30
2022/09/18 01:07:50;;;;;;;9.25;2.38;;;9.60;99.90;;;;;;4962447;28;90064;-30
2022/09/18 01:10:36;;;;;;;5.43;1.73;;;9.60;99.90;;;;;;4962623;28;90639;-31
2022/09/18 01:13:14;;;;;;;5.65;1.88;;;9.60;99.90;;;;;;4962880;28;89209;-31
2022/09/18 01:15:51;;;;;;;6.78;2.47;;;9.70;99.90;;;;;;4962810;28;89108;-32
2022/09/18 01:18:42;;;;;;;9.70;2.25;;;9.70;99.90;;;;;;4962441;28;90377;-33
2022/09/18 01:21:16;;;;;;;8.40;3.10;;;9.60;99.90;;;;;;4962294;28;89940;-30
2022/09/18 01:23:56;;;;;;;4.90;1.55;;;9.70;99.90;;;;;;4962848;28;87576;-29
2022/09/18 01:26:33;;;;;;;6.80;2.50;;;9.70;99.90;;;;;;4963020;28;89830;-29
2022/09/18 01:29:12;;;;;;;9.02;2.50;;;9.60;99.90;;;;;;4961447;28;91798;-30
2022/09/18 01:32:14;;;;;;;7.85;2.53;;;9.70;99.90;;;;;;4961196;28;89550;-32
2022/09/18 01:34:48;;;;;;;5.55;1.50;;;9.70;99.90;;;;;;4955841;28;88597;-29
2022/09/18 01:37:36;;;;;;;7.35;2.10;;;9.70;99.90;;;;;;4961034;28;89612;-29
2022/09/18 01:40:07;;;;;;;6.20;1.83;;;9.70;99.90;;;;;;4961465;28;90508;-29
2022/09/18 01:42:35;;;;;;;5.68;1.77;;;9.70;99.90;;;;;;4959998;28;90401;-31
2022/09/18 01:45:06;;;;;;;4.78;1.77;;;9.70;99.90;;;;;;4960969;28;90565;-29
2022/09/18 01:47:38;;;;;;;6.55;2.60;;;9.70;99.90;;;;;;4961120;28;89495;-31
2022/09/18 01:50:08;;;;;;;14.10;2.42;;;9.70;99.90;;;;;;4961289;28;90150;-32
2022/09/18 01:52:42;;;;;;;13.95;2.70;;;9.70;99.90;;;;;;4961126;28;89663;-29
2022/09/18 01:55:14;;;;;;;7.15;2.40;;;9.70;99.90;;;;;;4960415;28;89019;-31
2022/09/18 01:58:07;;;;;;;8.93;2.38;;;9.80;99.90;;;;;;4961198;28;89330;-31
2022/09/18 02:00:36;;;;;;;2.78;1.98;;;9.70;99.90;;;;;;4959527;28;90416;-30
2022/09/18 02:03:04;;;;;;;7.93;2.53;;;9.70;99.90;;;;;;4960246;28;89829;-32
2022/09/18 02:05:38;;;;;;;;;;;9.70;99.90;;;;;;4956281;28;89279;-30
2022/09/18 02:08:23;;;;;;;7.60;1.85;;;9.70;99.90;;;;;;4957276;28;89333;-33
2022/09/18 02:10:54;;;;;;;13.25;2.67;;;9.70;99.90;;;;;;4961050;28;90418;-32
2022/09/18 02:13:25;;;;;;;10.80;2.85;;;9.70;99.90;;;;;;4960281;28;88812;-34
2022/09/18 02:15:59;;;;;;;7.15;2.15;;;9.70;99.90;;;;;;4959936;28;89534;-34
2022/09/18 02:18:31;;;;;;;6.25;1.67;;;9.70;99.90;;;;;;4960601;28;88139;-30
2022/09/18 02:20:57;;;;;;;4.72;1.73;;;9.70;99.90;;;;;;4960044;28;90588;-34
2022/09/18 02:23:24;;;;;;;10.40;2.97;;;9.70;99.90;;;;;;4960510;28;89617;-30
2022/09/18 02:26:03;;;;;;;4.88;2.08;;;9.70;99.90;;;;;;4960510;28;90315;-30
2022/09/18 02:28:30;;;;;;;7.00;2.17;;;9.70;99.90;;;;;;4960042;28;88626;-32
2022/09/18 02:30:57;;;;;;;7.55;2.17;;;9.70;99.90;;;;;;4960340;28;90353;-31
2022/09/18 02:33:24;;;;;;;11.65;2.28;;;9.70;99.90;;;;;;4959186;28;90644;-32
2022/09/18 02:35:59;;;;;;;6.68;2.08;;;9.70;99.90;;;;;;4960243;28;91490;-30
2022/09/18 02:38:50;;;;;;;4.50;1.83;;;9.70;99.90;;;;;;4946555;28;87912;-30
2022/09/18 02:41:34;;;;;;;5.80;2.58;;;9.70;99.90;;;;;;4959941;28;90108;-31
2022/09/18 02:44:09;;;;;;;8.73;1.98;;;9.70;99.90;;;;;;4960329;28;89510;-33
2022/09/18 02:46:52;;;;;;;4.18;1.70;;;9.70;99.90;;;;;;4959287;28;89626;-31
2022/09/18 02:49:39;;;;;;;2.80;1.73;;;9.70;99.90;;;;;;4960337;28;88237;-30
2022/09/18 02:52:13;;;;;;;8.13;1.67;;;9.70;99.90;;;;;;4947935;28;90219;-33
2022/09/18 02:54:52;;;;;;;6.40;2.08;;;9.70;99.90;;;;;;4959710;28;88812;-31
2022/09/18 02:57:30;;;;;;;6.57;1.60;;;9.80;99.90;;;;;;4947452;28;89883;-29
2022/09/18 02:59:59;;;;;;;5.80;2.20;;;9.80;99.90;;;;;;4959324;28;89464;-31
2022/09/18 03:02:25;;;;;;;4.13;1.20;;;9.80;99.90;;;;;;4959291;28;90603;-33
2022/09/18 03:04:51;;;;;;;14.05;3.28;;;9.80;99.90;;;;;;4960199;28;89355;-31
2022/09/18 03:07:17;;;;;;;6.95;2.95;;;9.80;99.90;;;;;;4958884;28;89638;-33
2022/09/18 03:09:43;;;;;;;9.20;1.95;;;9.80;99.90;;;;;;4959934;28;87762;-30
2022/09/18 03:12:09;;;;;;;5.60;2.10;;;9.80;99.90;;;;;;4959919;28;90179;-32
2022/09/18 03:14:35;;;;;;;4.72;1.63;;;9.80;99.90;;;;;;4959265;28;90160;-30
2022/09/18 03:17:01;;;;;;;11.18;2.42;;;9.80;99.90;;;;;;4959564;28;89923;-32
2022/09/18 03:19:26;;;;;;;11.82;2.20;;;9.80;99.90;;;;;;4959587;28;88827;-34
2022/09/18 03:21:52;;;;;;;9.43;3.08;;;9.80;99.90;;;;;;4938375;28;90741;-29
2022/09/18 03:24:19;;;;;;;3.65;1.65;;;9.90;99.90;;;;;;4957699;28;91630;-31
2022/09/18 03:26:45;;;;;;;8.65;2.45;;;9.90;99.90;;;;;;4958624;28;90649;-31
2022/09/18 03:29:12;;;;;;;5.93;1.77;;;9.90;99.90;;;;;;4959644;28;89262;-31
2022/09/18 03:31:37;;;;;;;7.88;2.38;;;9.90;99.90;;;;;;4959691;28;90413;-29
2022/09/18 03:34:03;;;;;;;9.40;1.65;;;10.00;99.90;;;;;;4958614;28;89998;-34
2022/09/18 03:36:29;;;;;;;5.85;2.13;;;10.00;99.90;;;;;;4959588;28;89699;-30
2022/09/18 03:38:55;;;;;;;9.88;2.05;;;10.00;99.90;;;;;;4959493;28;89605;-31
2022/09/18 03:41:21;;;;;;;9.45;1.77;;;10.00;99.90;;;;;;4958875;28;90588;-31
2022/09/18 03:43:47;;;;;;;3.40;2.03;;;10.10;99.90;;;;;;4959221;28;88649;-32
2022/09/18 03:46:13;;;;;;;4.07;1.88;;;10.10;99.90;;;;;;4957157;28;89507;-31
2022/09/18 03:48:39;;;;;;;4.78;2.28;;;10.10;99.90;;;;;;4959400;28;88332;-31
2022/09/18 03:51:05;;;;;;;6.82;2.40;;;10.10;99.90;;;;;;4959129;28;90177;-32
2022/09/18 03:53:30;;;;;;;6.93;1.83;;;10.10;99.90;;;;;;4958828;28;89504;-32
2022/09/18 03:55:56;;;;;;;4.60;1.75;;;10.10;99.90;;;;;;4959202;28;89397;-30
2022/09/18 03:58:21;;;;;;;5.13;1.70;;;10.10;99.90;;;;;;4958761;28;90294;-29
2022/09/18 04:00:47;;;;;;;6.13;1.90;;;10.10;99.90;;;;;;4959710;28;90705;-30
2022/09/18 04:03:13;;;;;;;4.22;1.67;;;10.10;99.90;;;;;;4958502;28;89902;-28
2022/09/18 04:05:39;;;;;;;5.30;1.80;;;10.10;99.90;;;;;;4954573;28;88888;-32
2022/09/18 04:08:04;;;;;;;2.38;1.65;;;10.10;99.90;;;;;;4952631;28;90125;-30
2022/09/18 04:10:33;;;;;;;11.90;1.75;;;10.10;99.90;;;;;;4958566;28;90248;-33
2022/09/18 04:12:59;;;;;;;3.63;1.67;;;10.10;99.90;;;;;;4958829;28;90322;-33
2022/09/18 04:15:26;;;;;;;4.55;1.10;;;10.10;99.90;;;;;;4958234;28;90507;-29
2022/09/18 04:17:52;;;;;;;10.40;2.17;;;10.10;99.90;;;;;;4958999;28;89413;-31
2022/09/18 04:20:17;;;;;;;5.95;2.00;;;10.10;99.90;;;;;;4958663;28;90297;-31
2022/09/18 04:22:43;;;;;;;5.68;1.73;;;10.10;99.90;;;;;;4944641;28;88493;-30
2022/09/18 04:25:09;;;;;;;8.65;2.15;;;10.10;99.90;;;;;;4958771;28;89788;-33
2022/09/18 04:27:35;;;;;;;3.00;1.23;;;10.10;99.90;;;;;;4958829;28;88661;-33
2022/09/18 04:30:01;;;;;;;9.52;2.35;;;10.10;99.90;;;;;;4958608;28;89900;-29
2022/09/18 04:32:27;;;;;;;4.05;2.10;;;10.10;99.90;;;;;;4958520;28;89350;-30
2022/09/18 04:34:53;;;;;;;9.40;2.17;;;10.10;99.90;;;;;;4958684;28;89636;-29
2022/09/18 04:37:18;;;;;;;7.20;1.65;;;10.10;99.90;;;;;;4958352;28;90454;-33
2022/09/18 04:39:45;;;;;;;4.47;1.70;;;10.10;99.90;;;;;;4947478;28;89182;-30
2022/09/18 04:42:11;;;;;;;4.45;1.83;;;10.10;99.90;;;;;;4960867;28;89459;-30
2022/09/18 04:44:37;;;;;;;6.45;2.22;;;10.10;99.90;;;;;;4962034;28;89446;-30
2022/09/18 04:47:03;;;;;;;11.75;2.42;;;10.10;99.90;;;;;;4961656;28;88362;-31
2022/09/18 04:49:28;;;;;;;4.28;1.50;;;10.10;99.90;;;;;;4961677;28;90623;-29
2022/09/18 04:51:54;;;;;;;3.45;1.63;;;10.10;99.90;;;;;;4961876;28;91226;-30
2022/09/18 04:54:19;;;;;;;4.97;1.70;;;10.10;99.90;;;;;;4961380;28;89417;-32
2022/09/18 04:56:45;;;;;;;8.32;2.63;;;10.10;99.90;;;;;;4961972;28;88419;-32
2022/09/18 04:59:10;;;;;;;4.25;1.42;;;10.10;99.90;;;;;;4960915;28;91045;-33
2022/09/18 05:01:36;;;;;;;7.00;1.75;;;10.20;99.90;;;;;;4961207;28;91727;-32
2022/09/18 05:04:02;;;;;;;3.40;1.40;;;10.10;99.90;;;;;;4960954;28;90514;-32
2022/09/18 05:06:27;;;;;;;3.58;1.90;;;10.10;99.90;;;;;;4961393;28;88348;-31
2022/09/18 05:08:53;;;;;;;8.18;2.05;;;10.10;99.90;;;;;;4961010;28;90252;-31
2022/09/18 05:11:18;;;;;;;2.47;1.80;;;10.10;99.90;;;;;;4960772;28;88525;-33
2022/09/18 05:13:47;;;;;;;6.13;1.50;;;10.10;99.90;;;;;;4961844;28;89585;-30
2022/09/18 05:16:12;;;;;;;2.20;1.48;;;10.10;99.90;;;;;;4961934;28;87910;-32
2022/09/18 05:18:38;;;;;;;5.95;1.90;;;10.10;99.90;;;;;;4961136;28;90510;-29
2022/09/18 05:21:05;;;;;;;12.07;2.10;;;10.10;99.90;;;;;;4961030;28;89785;-33
2022/09/18 05:23:32;;;;;;;3.55;1.90;;;10.10;99.90;;;;;;4960778;28;89114;-32
2022/09/18 05:25:58;;;;;;;3.90;1.63;;;10.20;99.90;;;;;;4961060;28;89372;-31
2022/09/18 05:28:23;;;;;;;4.38;1.48;;;10.10;99.90;;;;;;4960842;28;89596;-30
2022/09/18 05:30:49;;;;;;;8.68;2.38;;;10.20;99.90;;;;;;4961126;28;89592;-30
2022/09/18 05:33:15;;;;;;;6.75;1.42;;;10.20;99.90;;;;;;4961062;28;89649;-30
2022/09/18 05:35:41;;;;;;;3.40;1.77;;;10.20;99.90;;;;;;4961741;28;89587;-30
2022/09/18 05:38:06;;;;;;;6.22;1.83;;;10.20;99.90;;;;;;4960856;28;90485;-34
2022/09/18 05:40:34;;;;;;;3.15;1.85;;;10.20;99.90;;;;;;4960831;28;89616;-29
2022/09/18 05:43:01;;;;;;;15.05;2.80;;;10.20;99.90;;;;;;4960907;28;90657;-29
2022/09/18 05:45:27;;;;;;;8.43;1.98;;;10.20;99.90;;;;;;4959185;28;89595;-31
2022/09/18 05:48:06;;;;;;;8.70;1.38;;;10.20;99.90;;;;;;4961131;28;91056;-29
2022/09/18 05:50:33;;;;;;;6.13;1.75;;;10.30;99.90;;;;;;4960319;28;90817;-32
2022/09/18 05:53:12;;;;;;;7.57;1.88;;;10.30;99.90;;;;;;4960793;28;90150;-32
2022/09/18 05:55:38;;;;;;;3.20;1.55;;;10.30;99.90;;;;;;4961329;28;89268;-30
2022/09/18 05:58:06;;;;;;;5.28;1.50;;;10.30;99.90;;;;;;4960355;28;90847;-31
2022/09/18 06:00:34;;;;;;;4.40;1.70;;;10.40;99.90;;;;;;4960592;28;89893;-34
2022/09/18 06:03:05;;;;;;;3.95;1.55;;;10.40;99.90;;;;;;4960793;28;90543;-31
2022/09/18 06:05:33;;;;;;;2.85;1.30;;;10.40;99.90;;;;;;4960699;28;89767;-35
2022/09/18 06:08:00;;;;;;;;;;;10.40;99.90;;;;;;4961496;28;90425;-33
2022/09/18 06:10:27;;;;;;;5.55;1.33;;;10.40;99.90;;;;;;4961757;28;89744;-29
2022/09/18 06:13:03;;;;;;;4.80;1.45;;;10.40;99.90;;;;;;4960652;28;89825;-30
2022/09/18 06:15:29;;;;;;;6.15;1.60;;;10.40;99.90;;;;;;4959767;28;89213;-30
2022/09/18 06:17:55;;;;;;;5.18;1.73;;;10.50;99.90;;;;;;4960490;28;90727;-31
2022/09/18 06:20:20;;;;;;;3.78;1.05;;;10.40;99.90;;;;;;4959347;28;89529;-33
2022/09/18 06:22:46;;;;;;;3.00;1.45;;;10.50;99.90;;;;;;4961404;28;89990;-29
2022/09/18 06:25:12;;;;;;;2.92;1.30;;;10.40;99.90;;;;;;4959939;28;88797;-32
2022/09/18 06:27:37;;;;;;;4.55;1.67;;;10.40;99.90;;;;;;4960309;28;89921;-33
2022/09/18 06:30:04;;;;;;;3.95;1.38;;;10.40;99.90;;;;;;4959546;28;88545;-30
2022/09/18 06:32:30;;;;;;;3.55;1.45;;;10.40;99.90;;;;;;4958254;28;89580;-34
2022/09/18 06:34:55;;;;;;;2.88;1.30;;;10.40;99.90;;;;;;4960894;28;89120;-30
2022/09/18 06:37:21;;;;;;;6.53;1.52;;;10.40;99.90;;;;;;4959471;28;90131;-32
2022/09/18 06:39:47;;;;;;;3.33;0.82;;;10.40;99.90;;;;;;4959313;28;91076;-33
2022/09/18 06:42:12;;;;;;;6.90;1.70;;;10.40;99.90;;;;;;4959005;28;89945;-31
2022/09/18 06:44:38;;;;;;;4.25;2.63;;;10.40;99.90;;;;;;4959997;28;89993;-34
2022/09/18 06:47:03;;;;;;;6.20;1.65;;;10.50;99.90;;;;;;4960339;28;90292;-33
2022/09/18 06:49:29;;;;;;;4.82;1.27;;;10.50;99.90;;;;;;4959185;28;89685;-32
2022/09/18 06:51:55;;;;;;;4.75;1.08;;;10.50;99.90;;;;;;4960168;28;90275;-32
2022/09/18 06:54:20;;;;;;;4.05;1.95;;;10.50;99.90;;;;;;4959325;28;88595;-30
2022/09/18 06:56:46;;;;;;;2.95;0.90;;;10.50;99.90;;;;;;4960840;28;89884;-32
2022/09/18 06:59:12;;;;;;;2.10;1.15;;;10.50;99.90;;;;;;4959451;28;91148;-33
2022/09/18 07:01:38;;;;;;;3.33;1.23;;;10.50;99.90;;;;;;4958785;28;90726;-33
2022/09/18 07:04:03;;;;;;;3.33;1.55;;;10.60;99.90;;;;;;4959326;28;89189;-31
2022/09/18 07:06:29;;;;;;;2.25;1.10;;;10.60;99.90;;;;;;4958969;28;90237;-30
2022/09/18 07:08:55;;;;;;;2.83;1.00;;;10.60;99.90;;;;;;4960207;28;89962;-32
2022/09/18 07:11:20;;;;;;;9.55;1.80;;;10.60;99.90;;;;;;4959705;28;89359;-29
2022/09/18 07:13:46;;;;;;;4.03;2.30;;;10.60;99.90;;;;;;4959450;28;87632;-34
2022/09/18 07:16:12;;;;;;;4.55;1.60;;;10.60;99.90;;;;;;4959529;28;90499;-32
2022/09/18 07:18:38;;;;;;;2.42;1.48;;;10.60;99.90;;;;;;4959199;28;88941;-33
2022/09/18 07:21:05;;;;;;;2.78;1.40;;;10.60;99.90;;;;;;4961405;28;88555;-32
2022/09/18 07:23:32;;;;;;;5.05;1.40;;;10.70;99.90;;;;;;4959880;28;89416;-30
2022/09/18 07:25:59;;;;;;;4.60;1.27;;;10.70;99.90;;;;;;4958773;28;90152;-28
2022/09/18 07:28:25;;;;;;;5.25;1.40;;;10.70;99.90;;;;;;4959095;28;91372;-30
2022/09/18 07:30:50;;;;;;;3.35;1.40;;;10.70;99.90;;;;;;4959547;28;90584;-30
2022/09/18 07:33:16;;;;;;;3.95;1.27;;;10.70;99.90;;;;;;4960183;28;89490;-29
2022/09/18 07:35:41;;;;;;;2.05;0.80;;;10.70;99.90;;;;;;4959596;28;90262;-31
2022/09/18 07:38:08;;;;;;;6.45;2.00;;;10.70;99.90;;;;;;4959158;28;89653;-33
2022/09/18 07:40:34;;;;;;;6.13;1.25;;;10.70;99.90;;;;;;4958993;28;89452;-31
2022/09/18 07:43:05;;;;;;;2.35;1.40;;;10.70;99.90;;;;;;4959093;28;88072;-30
2022/09/18 07:45:31;;;;;;;6.43;1.58;;;10.80;99.90;;;;;;4959225;28;90601;-31
2022/09/18 07:48:03;;;;;;;4.20;1.15;;;10.80;99.90;;;;;;4954088;28;89565;-29
2022/09/18 07:50:28;;;;;;;2.70;1.38;;;10.80;99.90;;;;;;4953753;28;90593;-30
2022/09/18 07:52:56;;;;;;;6.75;2.17;;;10.90;99.90;;;;;;4941476;28;89389;-29
2022/09/18 07:55:24;;;;;;;6.05;2.38;;;10.90;99.90;;;;;;4941534;28;90359;-33
2022/09/18 07:57:55;;;;;;;6.93;2.47;;;10.90;99.90;;;;;;4948205;28;89655;-30
2022/09/18 08:00:20;;;;;;;4.95;1.75;;;10.90;99.90;;;;;;4964557;28;91366;-32
2022/09/18 08:02:46;;;;;;;4.32;1.50;;;11.00;99.90;;;;;;4967431;28;90624;-31
2022/09/18 08:05:12;;;;;;;4.43;1.35;;;11.00;99.90;;;;;;4965074;28;90806;-32
2022/09/18 08:07:37;;;;;;;6.90;1.42;;;11.00;99.90;;;;;;4966199;28;90724;-30
2022/09/18 08:10:04;;;;;;;6.32;1.70;;;11.00;99.90;;;;;;4947675;28;89559;-33
2022/09/18 08:12:31;;;;;;;11.63;2.30;;;11.00;99.90;;;;;;4943231;28;88841;-31
2022/09/18 08:14:57;;;;;;;4.75;1.77;;;11.00;99.90;;;;;;4947757;28;90270;-32
2022/09/18 08:17:24;;;;;;;4.60;1.40;;;11.00;99.90;;;;;;4956921;28;91050;-30
2022/09/18 08:19:50;;;;;;;4.85;1.50;;;10.90;99.90;;;;;;4960628;28;89973;-30
2022/09/18 08:22:15;;;;;;;3.10;1.38;;;11.00;99.90;;;;;;4959513;28;88466;-34
2022/09/18 08:24:41;;;;;;;5.80;1.00;;;11.00;99.90;;;;;;4959012;28;90241;-33
2022/09/18 08:27:07;;;;;;;5.10;1.58;;;10.90;99.90;;;;;;4946105;28;90127;-35
2022/09/18 08:29:33;;;;;;;8.98;1.80;;;10.90;99.90;;;;;;4959060;28;89607;-29
2022/09/18 08:31:58;;;;;;;5.95;2.50;;;10.90;99.90;;;;;;4960518;28;89761;-30
2022/09/18 08:34:24;;;;;;;3.80;1.08;;;10.90;99.90;;;;;;4958342;28;89175;-30
2022/09/18 08:36:50;;;;;;;4.95;1.55;;;10.80;99.90;;;;;;4959956;28;89148;-29
2022/09/18 08:39:16;;;;;;;6.05;1.48;;;10.90;99.90;;;;;;4959058;28;89941;-32
2022/09/18 08:42:19;;;;;;;1.40;1.27;;;10.90;99.90;;;;;;4958876;28;90013;-34
2022/09/18 08:44:47;;;;;;;4.82;1.02;;;10.90;99.90;;;;;;4959120;28;89993;-32
2022/09/18 08:47:25;;;;;;;2.87;0.70;;;10.90;99.90;;;;;;4959828;28;90398;-32
2022/09/18 08:50:13;;;;;;;1.38;1.00;;;10.90;99.90;;;;;;4973052;28;89534;-33
2022/09/18 08:52:44;;;;;;;1.80;1.05;;;10.90;99.90;;;;;;4959021;28;89221;-31
2022/09/18 08:55:26;;;;;;;3.65;1.52;;;11.00;99.90;;;;;;4940767;28;89654;-30
2022/09/18 08:58:35;;;;;;;1.92;0.88;;;11.00;99.90;;;;;;4945839;28;90224;-34
2022/09/18 09:01:15;;;;;;;3.42;1.58;;;11.00;99.90;;;;;;4958674;28;89678;-30
2022/09/18 09:03:55;;;;;;;5.10;1.10;;;11.10;99.90;;;;;;4960197;28;88674;-31
2022/09/18 09:06:39;;;;;;;1.17;0.75;;;11.10;99.90;;;;;;4961755;28;90150;-31
2022/09/18 09:09:44;;;;;;;2.80;1.00;;;11.10;99.90;;;;;;4955333;28;90670;-30
2022/09/18 09:12:12;;;;;;;1.52;0.93;;;11.10;99.90;;;;;;4940652;28;90384;-29
2022/09/18 09:15:10;;;;;;;3.15;1.02;;;11.10;99.90;;;;;;4949168;28;89048;-30
2022/09/18 09:17:48;;;;;;;6.00;1.10;;;11.10;99.90;;;;;;4959474;28;89998;-30
2022/09/18 09:20:36;;;;;;;10.50;2.10;;;11.10;99.90;;;;;;4959156;28;89817;-34
2022/09/18 09:23:17;;;;;;;7.22;1.38;;;11.10;99.90;;;;;;4947661;28;89623;-32
2022/09/18 09:25:50;;;;;;;5.68;1.33;;;11.10;99.90;;;;;;4958609;28;88932;-33
2022/09/18 09:28:25;;;;;;;6.72;2.45;;;11.10;99.90;;;;;;4959818;28;89843;-33
2022/09/18 09:30:55;;;;;;;5.97;1.77;;;11.10;99.90;;;;;;4957930;28;89641;-33
2022/09/18 09:33:36;;;;;;;2.35;0.82;;;11.10;99.90;;;;;;4946265;28;91289;-30
2022/09/18 09:36:14;;;;;;;2.78;1.17;;;11.10;99.90;;;;;;4959820;28;89895;-30
2022/09/18 09:38:45;;;;;;;4.22;1.45;;;11.10;99.90;;;;;;4968827;28;90071;-31
2022/09/18 09:41:14;;;;;;;3.20;0.90;;;11.00;99.90;;;;;;4976817;28;89931;-32
2022/09/18 09:44:25;;;;;;;3.50;1.38;;;11.10;99.90;;;;;;4978147;28;90565;-30
2022/09/18 09:47:11;;;;;;;2.13;1.40;;;11.10;99.90;;;;;;4953433;28;88364;-30
2022/09/18 09:50:05;;;;;;;3.90;1.33;;;11.00;99.90;;;;;;4977091;28;90023;-33
2022/09/18 09:52:31;;;;;;;3.58;1.45;;;11.00;99.90;;;;;;4977978;28;90206;-31
2022/09/18 09:55:06;;;;;;;5.40;1.60;;;11.00;99.90;;;;;;4977316;28;88835;-29
2022/09/18 09:58:13;;;;;;;12.45;1.83;;;11.00;99.90;;;;;;4977689;28;87866;-31
2022/09/18 10:01:03;;;;;;;3.70;1.35;;;11.00;99.90;;;;;;4969034;28;90364;-32
2022/09/18 10:03:53;;;;;;;4.38;1.35;;;11.00;99.90;;;;;;4975728;28;91218;-30
2022/09/18 10:06:25;;;;;;;2.40;1.13;;;11.00;99.90;;;;;;4976090;28;90593;-33
2022/09/18 10:09:13;;;;;;;2.30;1.38;;;11.00;99.90;;;;;;4972089;28;89743;-31
2022/09/18 10:11:42;;;;;;;3.40;1.45;;;11.10;99.90;;;;;;4967247;28;90209;-30
2022/09/18 10:14:29;;;;;;;4.93;2.10;;;11.00;99.90;;;;;;4974407;28;90632;-33
2022/09/18 10:16:56;;;;;;;7.80;1.40;;;11.00;99.90;;;;;;4966199;28;89567;-34
2022/09/18 10:19:35;;;;;;;10.65;2.53;;;11.00;99.90;;;;;;4972145;28;88294;-33
2022/09/18 10:22:05;;;;;;;3.78;1.25;;;11.00;99.90;;;;;;4967207;28;89104;-34
2022/09/18 10:24:55;;;;;;;1.80;1.45;;;11.10;99.90;;;;;;4972808;28;88432;-34
2022/09/18 10:27:21;;;;;;;4.28;1.80;;;11.10;99.90;;;;;;4964684;28;89959;-34
2022/09/18 10:29:46;;;;;;;3.40;1.60;;;11.10;99.90;;;;;;4972141;28;88548;-29
2022/09/18 10:32:37;;;;;;;1.77;1.00;;;11.20;99.90;;;;;;4967706;28;91480;-30
2022/09/18 10:35:27;;;;;;;4.13;1.17;;;11.20;99.90;;;;;;4966954;28;89632;-30
2022/09/18 10:37:53;;;;;;;2.47;1.38;;;11.30;99.90;;;;;;4971474;28;89596;-31
2022/09/18 10:40:38;;;;;;;6.25;1.48;;;11.30;99.90;;;;;;4971001;28;89689;-30
2022/09/18 10:43:14;;;;;;;5.50;1.42;;;11.30;99.90;;;;;;4971442;28;90021;-35
2022/09/18 10:45:40;;;;;;;3.80;1.55;;;11.30;99.90;;;;;;4969639;28;90804;-32
2022/09/18 10:48:19;;;;;;;5.43;1.20;;;11.40;99.90;;;;;;4972320;28;89332;-30
2022/09/18 10:50:53;;;;;;;2.92;1.08;;;11.40;99.90;;;;;;4968701;28;89289;-32
2022/09/18 10:53:33;;;;;;;3.75;1.70;;;11.50;99.90;;;;;;4972259;28;90281;-30
2022/09/18 10:56:09;;;;;;;5.30;1.52;;;11.50;99.90;;;;;;4967210;28;90674;-31
2022/09/18 10:58:34;;;;;;;2.38;1.42;;;11.50;99.90;;;;;;4963634;28;91189;-31
2022/09/18 11:01:08;;;;;;;2.53;1.63;;;11.50;99.90;;;;;;4969019;28;89800;-31
2022/09/18 11:03:57;;;;;;;2.72;1.35;;;11.60;99.90;;;;;;4947764;28;91752;-32
2022/09/18 11:06:25;;;;;;;7.88;1.60;;;11.60;99.90;;;;;;4962708;28;90072;-32
2022/09/18 11:08:55;;;;;;;1.38;1.02;;;11.70;99.90;;;;;;4968022;28;89536;-33
2022/09/18 11:11:33;;;;;;;5.13;2.42;;;11.70;99.90;;;;;;4956891;28;90437;-31
2022/09/18 11:14:22;;;;;;;3.45;1.50;;;11.70;99.90;;;;;;4957894;28;90221;-30
2022/09/18 11:16:51;;;;;;;4.22;1.60;;;11.70;99.90;;;;;;4957003;28;89278;-31
2022/09/18 11:19:26;;;;;;;8.50;1.63;;;11.70;99.90;;;;;;4957420;28;89618;-31
2022/09/18 11:21:58;;;;;;;6.45;1.17;;;11.80;99.90;;;;;;4958747;28;89270;-33
2022/09/18 11:24:25;;;;;;;3.20;1.02;;;11.80;99.90;;;;;;4957467;28;90324;-34
2022/09/18 11:26:56;;;;;;;4.25;1.40;;;11.80;99.90;;;;;;4957821;28;89658;-33
2022/09/18 11:29:30;;;;;;;7.93;2.30;;;11.80;99.90;;;;;;4956033;28;89690;-33
2022/09/18 11:32:14;;;;;;;7.65;1.50;;;11.80;99.90;;;;;;4957694;28;89376;-31
2022/09/18 11:34:48;;;;;;;3.72;0.95;;;11.90;99.90;;;;;;4943984;28;89479;-32
2022/09/18 11:37:27;;;;;;;2.45;1.50;;;11.90;99.90;;;;;;4956932;28;89719;-32
2022/09/18 11:40:00;;;;;;;10.80;1.67;;;11.90;99.90;;;;;;4943814;28;90507;-31
2022/09/18 11:42:26;;;;;;;10.05;1.95;;;12.00;99.90;;;;;;4956307;28;89805;-36
2022/09/18 11:44:52;;;;;;;3.75;1.58;;;12.00;99.90;;;;;;4956246;28;90606;-33
2022/09/18 11:47:48;;;;;;;2.38;1.48;;;12.00;99.90;;;;;;4956306;28;90628;-35
2022/09/18 11:50:19;;;;;;;6.18;1.77;;;12.10;99.90;;;;;;4952118;28;89370;-34
2022/09/18 11:52:53;;;;;;;3.38;1.50;;;12.20;99.90;;;;;;4960730;28;89867;-32
2022/09/18 11:55:37;;;;;;;5.43;1.75;;;12.20;99.90;;;;;;4960266;28;89281;-30
2022/09/18 11:58:11;;;;;;;9.60;2.05;;;12.30;99.90;;;;;;4959701;28;89714;-32
2022/09/18 12:00:49;;;;;;;8.30;2.67;;;12.30;99.90;;;;;;4960452;28;90135;-34
2022/09/18 12:03:26;;;;;;;4.95;1.38;;;12.40;99.90;;;;;;4959743;28;88881;-34
2022/09/18 12:06:05;;;;;;;6.72;1.67;;;12.40;99.90;;;;;;4959666;28;91621;-32
2022/09/18 12:08:39;;;;;;;6.93;1.55;;;12.40;99.90;;;;;;4957511;28;89770;-30
2022/09/18 12:11:15;;;;;;;2.50;1.42;;;12.40;99.90;;;;;;4960472;28;89750;-31
2022/09/18 12:13:59;;;;;;;4.78;1.55;;;12.40;99.90;;;;;;4959929;28;90805;-30
2022/09/18 12:16:51;;;;;;;3.83;1.40;;;12.50;99.90;;;;;;4959037;28;91661;-35
2022/09/18 12:19:36;;;;;;;5.68;2.10;;;12.50;99.90;;;;;;4967823;28;89554;-31
2022/09/18 12:22:05;;;;;;;10.32;1.40;;;12.50;99.90;;;;;;4914312;28;89606;-32
2022/09/18 12:24:30;;;;;;;5.80;1.33;;;12.50;99.90;;;;;;4989511;28;89440;-32
2022/09/18 12:27:10;;;;;;;5.13;2.17;;;12.50;99.90;;;;;;4979291;28;91270;-32
2022/09/18 12:30:00;;;;;;;1.67;1.45;;;12.50;99.90;;;;;;4979561;28;91665;-30
2022/09/18 12:32:47;;;;;;;13.45;2.38;;;12.70;99.90;;;;;;4979904;28;89596;-29
2022/09/18 12:35:35;;;;;;;6.60;2.45;;;12.70;99.90;;;;;;4979378;28;88898;-32
2022/09/18 12:38:20;;;;;;;5.93;1.50;;;12.70;99.90;;;;;;4979544;28;90681;-31
2022/09/18 12:43:55;;;;;;;7.15;1.92;;;12.80;99.90;;;;;;4942500;28;89046;-33
2022/09/18 12:46:43;;;;;;;6.13;1.60;;;12.80;99.90;;;;;;4940136;28;89929;-35
2022/09/18 12:49:43;;;;;;;4.80;2.05;;;12.90;99.90;;;;;;4939681;28;90578;-32
2022/09/18 12:52:42;;;;;;;3.25;1.98;;;12.90;99.90;;;;;;4916018;28;90049;-31
2022/09/18 12:55:13;;;;;;;4.32;2.03;;;12.90;99.90;;;;;;4939827;28;88958;-33
2022/09/18 12:58:11;;;;;;;5.03;1.38;;;12.90;99.90;;;;;;4939904;28;88759;-33
2022/09/18 13:00:39;;;;;;;6.32;2.10;;;12.90;99.90;;;;;;4907979;28;90723;-32
2022/09/18 13:03:13;;;;;;;8.57;1.90;;;12.90;99.90;;;;;;4939402;28;90015;-34
2022/09/18 13:06:05;;;;;;;13.13;2.75;;;12.90;99.90;;;;;;4939703;28;90035;-33
2022/09/18 13:08:52;;;;;;;3.20;1.75;;;12.90;99.90;;;;;;4939056;28;88675;-30
2022/09/18 13:11:26;;;;;;;7.65;2.08;;;13.00;99.90;;;;;;4938666;28;90299;-32
2022/09/18 13:14:01;;;;;;;4.47;1.95;;;13.00;99.90;;;;;;4939770;28;89627;-32
2022/09/18 13:16:39;;;;;;;5.82;1.70;;;13.00;99.90;;;;;;4939398;28;89668;-35
2022/09/18 13:19:36;;;;;;;4.65;1.90;;;13.00;99.90;;;;;;4939492;28;88481;-31